Time;durP1;ratioP1;P1;durP2;ratioP2;P2;SDS_P1;SDS_P2;PMS_P1;PMS_P2;Temp;Humidity;BMP_temperature;BMP_pressure;BME280_temperature;BME280_humidity;BME280_pressure;Samples;Min_cycle;Max_cycle;Signal;HPM_P1;HPM_P2
2022/08/31 00:04:01;;;;;;;3.60;2.17;;;;;;;16.97;66.87;101992.88;5075083;28;20058;-49
2022/08/31 00:06:28;;;;;;;;;;;;;;;17.09;63.96;101999.03;5067875;28;20085;-46
2022/08/31 00:08:53;;;;;;;4.25;2.42;;;;;;;16.95;67.16;101999.34;5081973;28;19927;-48
2022/08/31 00:11:26;;;;;;;4.03;2.78;;;;;;;16.92;67.19;101994.25;5081232;28;20024;-45
2022/08/31 00:13:56;;;;;;;5.22;2.50;;;;;;;16.87;67.70;101988.41;5080405;28;20119;-48
2022/08/31 00:16:23;;;;;;;4.07;2.42;;;;;;;16.84;67.92;101989.50;5076311;28;20064;-45
2022/08/31 00:18:51;;;;;;;2.50;2.30;;;;;;;16.85;67.72;101991.22;5082145;28;20474;-46
2022/08/31 00:21:18;;;;;;;3.03;2.45;;;;;;;16.82;67.96;101992.31;5072088;28;20032;-47
2022/08/31 00:23:43;;;;;;;5.80;2.67;;;;;;;16.80;68.15;101993.41;5071457;28;20039;-46
2022/08/31 00:26:08;;;;;;;2.83;2.63;;;;;;;16.78;68.39;101984.66;5077662;28;20016;-47
2022/08/31 00:28:34;;;;;;;5.15;2.17;;;;;;;16.76;68.60;101986.63;5076952;28;20041;-47
2022/08/31 00:30:59;;;;;;;2.97;2.50;;;;;;;16.74;68.99;101986.75;5071413;28;20508;-47
2022/08/31 00:33:24;;;;;;;3.63;2.53;;;;;;;16.74;68.75;101991.28;5082196;28;20564;-47
2022/08/31 00:35:49;;;;;;;5.23;2.50;;;;;;;16.73;68.58;101997.63;5082781;28;20277;-47
2022/08/31 00:38:15;;;;;;;2.57;2.37;;;;;;;16.69;69.28;101999.72;5070790;28;20670;-47
2022/08/31 00:40:43;;;;;;;8.35;2.58;;;;;;;16.70;68.58;101992.50;5070959;28;20378;-48
2022/08/31 00:43:08;;;;;;;2.73;2.47;;;;;;;16.70;68.87;101993.34;5071076;28;20024;-48
2022/08/31 00:45:34;;;;;;;3.63;2.60;;;;;;;16.68;69.19;101991.78;5083331;28;20470;-47
2022/08/31 00:47:59;;;;;;;2.60;2.40;;;;;;;16.66;68.90;101989.25;5072766;28;20052;-50
2022/08/31 00:50:25;;;;;;;2.85;2.45;;;;;;;16.64;68.99;101992.03;5066749;28;20295;-46
2022/08/31 00:52:57;;;;;;;2.53;2.33;;;;;;;16.63;69.27;101989.50;5109262;22;20582;-78
2022/08/31 00:55:32;;;;;;;3.42;2.72;;;;;;;16.62;69.44;101990.47;5069632;28;20530;-77
2022/08/31 00:58:02;;;;;;;4.32;2.60;;;;;;;16.59;69.53;101988.06;5070006;28;20024;-77
2022/08/31 01:00:29;;;;;;;5.80;2.58;;;;;;;16.55;70.05;101984.75;5075209;28;20033;-77
2022/08/31 01:02:58;;;;;;;2.58;2.38;;;;;;;16.57;70.04;101990.00;5062563;28;20033;-77
2022/08/31 01:05:24;;;;;;;2.45;2.33;;;;;;;16.55;70.03;101992.81;5075462;28;20031;-77
2022/08/31 01:07:50;;;;;;;3.22;2.60;;;;;;;16.54;70.07;101984.91;5074708;28;20028;-77
2022/08/31 01:10:19;;;;;;;7.85;2.70;;;;;;;16.51;70.02;101987.84;5072686;28;20020;-77
2022/08/31 01:12:46;;;;;;;2.97;2.35;;;;;;;16.51;69.82;101991.38;5074509;28;20024;-77
2022/08/31 01:15:14;;;;;;;4.18;2.50;;;;;;;16.49;70.20;101982.63;5071754;28;20647;-77
2022/08/31 01:17:41;;;;;;;3.13;2.50;;;;;;;16.48;70.26;101988.09;5065703;28;20028;-77
2022/08/31 01:20:15;;;;;;;2.67;2.35;;;;;;;16.46;70.12;101982.88;5075326;28;20043;-77
2022/08/31 01:23:10;;;;;;;3.65;2.53;;;;;;;16.48;69.47;101986.25;5074521;28;20039;-76
2022/08/31 01:25:38;;;;;;;3.67;2.50;;;;;;;16.43;70.41;101977.75;5068005;28;20036;-75
2022/08/31 01:28:06;;;;;;;2.60;2.40;;;;;;;16.41;70.49;101977.03;5064942;28;20032;-76
2022/08/31 01:30:32;;;;;;;2.90;2.30;;;;;;;16.38;70.69;101978.13;5057575;28;20032;-76
2022/08/31 01:32:57;;;;;;;5.90;2.40;;;;;;;16.36;70.55;101976.56;5065050;28;20063;-76
2022/08/31 01:35:23;;;;;;;4.78;2.53;;;;;;;16.34;70.68;101979.38;5074610;28;20032;-77
2022/08/31 01:37:50;;;;;;;7.03;2.72;;;;;;;16.33;70.77;101980.34;5074016;28;20017;-76
2022/08/31 01:40:16;;;;;;;3.53;2.45;;;;;;;16.33;70.72;101977.66;5076417;28;20055;-76
2022/08/31 01:42:41;;;;;;;3.92;2.90;;;;;;;16.32;70.45;101981.34;5071871;28;20024;-77
2022/08/31 01:45:07;;;;;;;3.85;2.28;;;;;;;16.29;70.74;101978.91;5066380;28;20564;-77
2022/08/31 01:47:33;;;;;;;4.88;2.28;;;;;;;16.30;70.80;101975.22;5058661;28;20074;-77
2022/08/31 01:49:58;;;;;;;4.10;2.65;;;;;;;16.29;70.66;101986.94;5073165;28;20024;-77
2022/08/31 01:52:25;;;;;;;2.97;2.30;;;;;;;16.28;71.06;101982.56;5072042;28;20052;-77
2022/08/31 01:54:51;;;;;;;2.55;2.35;;;;;;;16.26;70.28;101988.03;5069744;28;20032;-76
2022/08/31 01:57:16;;;;;;;3.08;2.45;;;;;;;16.24;71.00;101983.81;5078838;28;20025;-76
2022/08/31 01:59:41;;;;;;;3.17;2.38;;;;;;;16.25;70.94;101991.72;5076068;28;20493;-77
2022/08/31 02:02:07;;;;;;;5.65;2.65;;;;;;;16.21;71.15;101989.41;5079182;28;20032;-76
2022/08/31 02:04:32;;;;;;;5.45;2.55;;;;;;;16.23;70.56;101990.97;5071684;28;20082;-77
2022/08/31 02:06:59;;;;;;;2.53;2.20;;;;;;;16.22;71.01;101997.34;5068799;28;20033;-76
2022/08/31 02:09:25;;;;;;;3.72;2.50;;;;;;;16.19;71.08;101994.06;5060896;28;20028;-76
2022/08/31 02:11:50;;;;;;;2.58;2.38;;;;;;;16.21;70.80;101998.31;5076212;28;20039;-76
2022/08/31 02:14:17;;;;;;;4.82;2.00;;;;;;;16.20;70.99;101991.22;5075837;28;20411;-77
2022/08/31 02:16:42;;;;;;;3.72;2.42;;;;;;;16.19;71.07;102000.25;5076342;28;20059;-77
2022/08/31 02:19:08;;;;;;;3.95;2.20;;;;;;;16.19;70.62;101994.91;5076434;28;20028;-77
2022/08/31 02:21:34;;;;;;;2.67;2.40;;;;;;;16.16;71.24;101999.66;5076973;28;20046;-77
2022/08/31 02:23:59;;;;;;;2.80;2.33;;;;;;;16.17;71.32;101998.66;5070295;28;20368;-76
2022/08/31 02:26:24;;;;;;;3.80;2.47;;;;;;;16.16;71.22;101996.97;5056931;28;20111;-77
2022/08/31 02:28:50;;;;;;;5.68;2.28;;;;;;;16.13;71.44;101999.91;5072945;28;20099;-77
2022/08/31 02:31:18;;;;;;;2.97;2.30;;;;;;;16.14;71.20;102004.28;5073944;28;20070;-77
2022/08/31 02:33:43;;;;;;;4.43;2.28;;;;;;;16.11;71.64;102000.03;5069505;28;20024;-77
2022/08/31 02:36:09;;;;;;;3.83;2.58;;;;;;;16.07;71.73;101998.56;5062854;28;20043;-77
2022/08/31 02:38:35;;;;;;;2.35;1.98;;;;;;;16.08;71.53;102000.28;5058025;28;20025;-77
2022/08/31 02:41:01;;;;;;;3.45;2.47;;;;;;;16.06;71.74;101997.72;5068117;28;20064;-76
2022/08/31 02:43:26;;;;;;;7.03;2.20;;;;;;;16.03;71.51;101992.59;5074988;28;20425;-77
2022/08/31 02:45:52;;;;;;;4.80;2.30;;;;;;;16.02;71.42;101998.97;5076495;28;20024;-76
2022/08/31 02:48:17;;;;;;;2.92;2.60;;;;;;;16.01;71.52;101993.72;5076191;28;20020;-76
2022/08/31 02:50:46;;;;;;;3.00;2.10;;;;;;;15.98;71.92;101989.47;5076508;28;20081;-76
2022/08/31 02:53:14;;;;;;;4.55;2.67;;;;;;;15.98;71.83;101994.81;5061634;28;20076;-76
2022/08/31 02:55:39;;;;;;;3.13;2.47;;;;;;;15.96;71.82;101991.41;5076546;28;20078;-76
2022/08/31 02:58:05;;;;;;;4.13;2.10;;;;;;;15.95;71.74;101997.75;5071633;28;20423;-77
2022/08/31 03:00:32;;;;;;;4.55;2.45;;;;;;;15.93;71.94;101994.34;5070576;28;20056;-76
2022/08/31 03:02:58;;;;;;;4.47;2.58;;;;;;;15.91;71.93;101994.47;5062855;28;20035;-76
2022/08/31 03:05:24;;;;;;;2.78;2.40;;;;;;;15.88;71.96;102000.06;5063479;28;20035;-76
2022/08/31 03:07:51;;;;;;;4.68;2.03;;;;;;;15.87;71.96;101993.03;5069031;28;20021;-76
2022/08/31 03:10:20;;;;;;;5.88;2.60;;;;;;;15.86;72.01;101991.31;5062987;28;20029;-77
2022/08/31 03:12:47;;;;;;;2.72;2.28;;;;;;;15.85;71.95;101991.44;5076923;28;20085;-76
2022/08/31 03:15:13;;;;;;;3.00;2.50;;;;;;;15.82;71.91;101997.03;5074292;28;20398;-76
2022/08/31 03:17:38;;;;;;;3.42;2.47;;;;;;;15.79;72.50;101995.47;5075654;28;20031;-76
2022/08/31 03:20:05;;;;;;;4.00;2.22;;;;;;;15.77;72.33;101994.75;5075602;28;20025;-77
2022/08/31 03:22:31;;;;;;;2.47;2.28;;;;;;;15.75;72.36;102001.16;5062468;28;20155;-77
2022/08/31 03:24:57;;;;;;;3.45;2.40;;;;;;;15.72;72.04;101991.53;5072954;28;20487;-76
2022/08/31 03:27:23;;;;;;;2.67;2.45;;;;;;;15.69;72.25;102003.34;5073962;28;20131;-75
2022/08/31 03:29:49;;;;;;;3.05;2.20;;;;;;;15.67;72.36;101999.06;5063181;28;20025;-77
2022/08/31 03:32:14;;;;;;;3.92;2.42;;;;;;;15.63;72.64;102003.84;5055826;28;20091;-76
2022/08/31 03:34:40;;;;;;;5.75;2.47;;;;;;;15.64;72.30;102002.88;5069027;28;20028;-76
2022/08/31 03:37:05;;;;;;;6.30;2.92;;;;;;;15.61;72.57;101995.06;5054212;28;20124;-76
2022/08/31 03:39:30;;;;;;;3.28;2.65;;;;;;;15.62;72.50;102003.94;5068767;28;20027;-76
2022/08/31 03:41:56;;;;;;;4.60;2.23;;;;;;;15.59;72.17;102006.88;5068923;28;20044;-76
2022/08/31 03:44:22;;;;;;;3.10;2.80;;;;;;;15.57;71.87;102001.66;5068690;28;20307;-75
2022/08/31 03:46:49;;;;;;;3.38;2.47;;;;;;;15.54;72.34;102005.44;5068706;28;20017;-76
2022/08/31 03:49:14;;;;;;;3.15;2.35;;;;;;;15.51;72.34;102002.97;5066944;28;20077;-76
2022/08/31 03:51:40;;;;;;;5.80;2.42;;;;;;;15.49;72.21;102006.78;5056365;28;20500;-77
2022/08/31 03:54:05;;;;;;;2.58;2.30;;;;;;;15.47;72.11;102004.22;5058229;28;20029;-76
2022/08/31 03:56:30;;;;;;;2.60;2.40;;;;;;;15.48;72.07;102008.56;5075723;28;20112;-76
2022/08/31 03:58:56;;;;;;;3.83;2.40;;;;;;;15.47;71.97;102006.91;5074926;28;20153;-75
2022/08/31 04:01:21;;;;;;;7.60;2.78;;;;;;;15.43;72.23;102008.09;5063101;28;20471;-76
2022/08/31 04:03:46;;;;;;;5.40;2.43;;;;;;;15.41;71.97;102002.00;5060394;28;20078;-75
2022/08/31 04:06:12;;;;;;;3.92;2.67;;;;;;;15.37;72.32;102005.91;5074842;28;20297;-77
2022/08/31 04:08:37;;;;;;;4.28;2.40;;;;;;;15.36;72.59;102009.56;5076622;28;20021;-76
2022/08/31 04:11:21;;;;;;;3.70;2.58;;;;;;;15.36;71.92;102006.88;5062916;28;20025;-76
2022/08/31 04:13:47;;;;;;;2.28;2.05;;;;;;;15.31;72.92;102006.38;5062021;28;20041;-76
2022/08/31 04:16:15;;;;;;;3.17;2.88;;;;;;;15.22;72.39;101996.38;5064800;28;20067;-76
2022/08/31 04:18:42;;;;;;;5.00;2.20;;;;;;;15.25;72.55;101999.69;5060212;28;20094;-76
2022/08/31 04:21:20;;;;;;;5.22;2.28;;;;;;;15.27;71.97;102010.25;5063247;28;20016;-75
2022/08/31 04:23:47;;;;;;;4.07;2.70;;;;;;;15.21;72.44;102006.25;5073699;28;20058;-76
2022/08/31 04:26:18;;;;;;;2.80;2.38;;;;;;;15.16;72.31;102011.13;5075026;28;20024;-76
2022/08/31 04:28:43;;;;;;;3.72;2.50;;;;;;;15.12;72.54;102007.81;5056505;28;20033;-76
2022/08/31 04:31:09;;;;;;;5.38;2.50;;;;;;;15.12;72.38;102010.50;5061498;28;20021;-76
2022/08/31 04:33:38;;;;;;;3.23;2.07;;;;;;;15.10;72.17;102017.78;5072898;28;20499;-76
2022/08/31 04:36:04;;;;;;;;;;;;;;;15.23;70.61;102017.69;5075490;28;20317;-76
2022/08/31 04:38:30;;;;;;;4.40;2.58;;;;;;;15.09;71.57;102010.75;5074393;28;19909;-76
2022/08/31 04:40:55;;;;;;;3.17;2.30;;;;;;;15.03;71.94;102013.03;5074952;28;20020;-75
2022/08/31 04:43:20;;;;;;;5.68;2.40;;;;;;;15.01;72.33;102014.97;5069318;28;20423;-76
2022/08/31 04:45:46;;;;;;;4.17;2.17;;;;;;;14.97;71.83;102017.88;5055480;28;20443;-76
2022/08/31 04:48:11;;;;;;;3.03;2.40;;;;;;;14.97;71.86;102012.53;5068595;28;20294;-76
2022/08/31 04:50:36;;;;;;;3.63;2.60;;;;;;;14.96;71.72;102018.00;5053988;28;20056;-75
2022/08/31 04:53:02;;;;;;;2.55;2.35;;;;;;;14.93;71.45;102020.91;5055241;28;20383;-75
2022/08/31 04:55:27;;;;;;;4.53;2.42;;;;;;;14.90;71.81;102026.47;5066536;28;20031;-76
2022/08/31 04:57:52;;;;;;;4.20;2.40;;;;;;;14.88;71.64;102023.91;5075672;28;20119;-76
2022/08/31 05:00:18;;;;;;;4.45;2.80;;;;;;;14.87;71.72;102024.03;5075652;28;20629;-75
2022/08/31 05:02:43;;;;;;;4.70;2.50;;;;;;;14.80;71.63;102023.66;5073925;28;20104;-75
2022/08/31 05:05:10;;;;;;;3.17;2.33;;;;;;;14.78;71.35;102028.28;5075347;28;20024;-75
2022/08/31 05:07:36;;;;;;;4.75;2.63;;;;;;;14.72;71.29;102018.91;5069938;28;20394;-75
2022/08/31 05:10:03;;;;;;;6.68;2.25;;;;;;;14.72;71.36;102023.38;5066366;28;20111;-76
2022/08/31 05:12:29;;;;;;;2.80;2.30;;;;;;;14.67;71.44;102017.53;5073633;28;20036;-75
2022/08/31 05:14:55;;;;;;;6.03;2.30;;;;;;;14.65;71.22;102031.00;5063727;28;20041;-76
2022/08/31 05:17:20;;;;;;;7.22;2.63;;;;;;;14.63;71.25;102030.28;5054182;28;20025;-76
2022/08/31 05:19:45;;;;;;;3.67;2.28;;;;;;;14.64;71.03;102032.00;5053848;28;20074;-77
2022/08/31 05:22:11;;;;;;;8.50;2.45;;;;;;;14.61;71.32;102033.06;5058491;28;20036;-76
2022/08/31 05:24:37;;;;;;;4.05;2.22;;;;;;;14.59;70.78;102034.16;5077502;28;20021;-76
2022/08/31 05:27:03;;;;;;;3.28;2.33;;;;;;;14.57;70.70;102028.03;5072577;28;20096;-76
2022/08/31 05:29:28;;;;;;;2.80;2.13;;;;;;;14.54;70.76;102036.31;5066346;28;20161;-76
2022/08/31 05:31:55;;;;;;;4.35;2.10;;;;;;;14.51;70.95;102033.84;5075292;28;20056;-76
2022/08/31 05:34:21;;;;;;;6.35;2.20;;;;;;;14.51;70.57;102034.69;5075652;28;20032;-77
2022/08/31 05:36:53;;;;;;;4.75;2.20;;;;;;;14.49;70.34;102038.44;5073289;28;20456;-76
2022/08/31 05:39:18;;;;;;;3.88;2.30;;;;;;;14.47;70.69;102043.03;5068302;28;20025;-78
2022/08/31 05:41:47;;;;;;;11.23;2.15;;;;;;;14.47;70.60;102040.38;5065354;28;20051;-77
2022/08/31 05:44:13;;;;;;;3.87;2.60;;;;;;;14.44;70.78;102041.47;5079576;28;20047;-77
2022/08/31 05:46:39;;;;;;;4.85;2.40;;;;;;;14.46;70.15;102044.88;5083341;28;20298;-80
2022/08/31 05:49:06;;;;;;;4.00;2.17;;;;;;;14.45;70.45;102037.81;5087739;28;20043;-77
2022/08/31 05:51:32;;;;;;;1.80;1.70;;;;;;;14.45;69.81;102043.16;5085167;28;20416;-77
2022/08/31 05:53:59;;;;;;;7.93;2.10;;;;;;;14.47;70.25;102043.03;5072549;28;20147;-77
2022/08/31 05:56:25;;;;;;;3.80;1.95;;;;;;;14.48;70.05;102045.59;5080529;28;20045;-78
2022/08/31 05:58:51;;;;;;;3.78;1.83;;;;;;;14.50;69.67;102043.66;5086856;28;20024;-77
2022/08/31 06:01:18;;;;;;;6.40;2.20;;;;;;;14.49;69.66;102043.78;5085823;28;20052;-78
2022/08/31 06:03:44;;;;;;;3.35;1.88;;;;;;;14.50;69.32;102054.34;5089292;28;20025;-79
2022/08/31 06:06:11;;;;;;;2.28;2.08;;;;;;;14.52;69.08;102056.91;5080843;28;21197;-79
2022/08/31 06:08:38;;;;;;;6.78;2.13;;;;;;;14.54;69.03;102063.88;5089892;28;20045;-77
2022/08/31 06:11:04;;;;;;;2.50;2.10;;;;;;;14.56;68.92;102061.09;5080462;28;20060;-78
2022/08/31 06:13:30;;;;;;;5.60;2.13;;;;;;;14.55;68.71;102062.88;5076367;28;20760;-77
2022/08/31 06:15:56;;;;;;;3.53;2.22;;;;;;;14.61;68.60;102059.81;5086467;28;20087;-78
2022/08/31 06:18:22;;;;;;;5.03;1.98;;;;;;;14.64;68.44;102056.06;5086831;28;20379;-77
2022/08/31 06:20:48;;;;;;;4.55;1.92;;;;;;;14.70;68.47;102060.94;5084949;28;20064;-78
2022/08/31 06:23:14;;;;;;;5.50;2.00;;;;;;;14.73;67.82;102057.19;5081636;28;20036;-79
2022/08/31 06:25:39;;;;;;;4.55;2.20;;;;;;;14.79;68.00;102064.75;5090424;28;20123;-79
2022/08/31 06:28:06;;;;;;;6.05;2.17;;;;;;;14.86;67.66;102057.13;5080333;28;20052;-79
2022/08/31 06:30:40;;;;;;;8.32;2.28;;;;;;;14.91;67.48;102061.16;5087380;28;20036;-81
2022/08/31 06:33:05;;;;;;;6.25;2.08;;;;;;;15.01;67.57;102063.97;5096672;28;20028;-80
2022/08/31 06:35:31;;;;;;;8.77;2.40;;;;;;;15.10;67.42;102073.13;5091003;28;20056;-79
2022/08/31 06:37:57;;;;;;;3.70;2.00;;;;;;;15.19;66.83;102077.78;5076083;28;20033;-78
2022/08/31 06:40:25;;;;;;;4.18;2.00;;;;;;;15.26;66.37;102083.53;5073524;28;20143;-79
2022/08/31 06:42:51;;;;;;;5.27;1.90;;;;;;;15.33;66.00;102084.75;5089035;28;20099;-79
2022/08/31 06:45:16;;;;;;;2.53;1.90;;;;;;;15.39;64.94;102081.59;5083439;28;20028;-78
2022/08/31 06:47:42;;;;;;;4.07;1.90;;;;;;;15.43;64.40;102085.72;5073986;28;20021;-79
2022/08/31 06:50:08;;;;;;;3.70;1.88;;;;;;;15.46;64.99;102079.31;5076430;28;20064;-77
2022/08/31 06:52:33;;;;;;;3.53;1.98;;;;;;;15.50;64.26;102075.41;5075491;28;20067;-77
2022/08/31 06:54:59;;;;;;;3.17;2.10;;;;;;;15.54;63.98;102085.75;5074633;28;20025;-77
2022/08/31 06:57:25;;;;;;;4.05;1.90;;;;;;;15.61;63.62;102088.81;5075505;28;20040;-78
2022/08/31 06:59:52;;;;;;;3.50;1.98;;;;;;;15.67;63.53;102082.09;5071750;28;20012;-77
2022/08/31 07:02:18;;;;;;;3.92;1.80;;;;;;;15.77;63.24;102088.50;5075308;28;20094;-77
2022/08/31 07:04:43;;;;;;;2.92;2.00;;;;;;;15.88;63.64;102085.81;5064546;28;20025;-77
2022/08/31 07:07:10;;;;;;;3.78;2.03;;;;;;;16.01;63.05;102085.69;5067056;28;20498;-78
2022/08/31 07:09:36;;;;;;;3.22;2.13;;;;;;;16.12;62.47;102082.16;5057756;28;20033;-77
2022/08/31 07:12:03;;;;;;;3.03;2.03;;;;;;;16.25;61.69;102090.91;5053676;28;20036;-76
2022/08/31 07:14:28;;;;;;;5.40;2.17;;;;;;;16.42;61.09;102089.53;5054960;28;20056;-77
2022/08/31 07:16:56;;;;;;;3.53;2.38;;;;;;;16.55;61.35;102094.72;5070437;28;20072;-78
2022/08/31 07:19:22;;;;;;;3.17;2.00;;;;;;;16.74;60.47;102090.53;5072476;28;20029;-78
2022/08/31 07:21:53;;;;;;;8.45;2.47;;;;;;;16.92;59.69;102090.84;5076322;28;20044;-78
2022/08/31 07:24:23;;;;;;;3.53;2.10;;;;;;;17.13;58.93;102091.72;5075471;28;20032;-77
2022/08/31 07:26:56;;;;;;;3.97;2.03;;;;;;;17.29;58.36;102087.75;5081803;28;20013;-78
2022/08/31 07:29:32;;;;;;;3.40;2.05;;;;;;;17.49;58.17;102097.63;5081832;28;20043;-80
2022/08/31 07:31:58;;;;;;;4.65;2.00;;;;;;;17.75;57.15;102091.81;5092524;28;20032;-78
2022/08/31 07:34:29;;;;;;;5.93;2.17;;;;;;;17.89;56.24;102079.91;5092985;28;20021;-79
2022/08/31 07:42:30;;;;;;;3.50;1.90;;;;;;;18.26;55.06;102077.47;5087269;28;20024;-79
2022/08/31 07:44:58;;;;;;;4.25;1.70;;;;;;;18.42;54.67;102081.47;5086662;28;20032;-80
2022/08/31 07:47:25;;;;;;;2.33;1.77;;;;;;;18.67;54.44;102080.94;5087346;28;20025;-80
2022/08/31 07:49:52;;;;;;;6.80;1.90;;;;;;;18.75;53.84;102087.44;5089509;28;20052;-81
2022/08/31 07:52:24;;;;;;;3.75;1.90;;;;;;;18.88;53.48;102081.81;5095136;28;20049;-81
2022/08/31 07:54:56;;;;;;;2.67;1.60;;;;;;;18.98;53.07;102078.13;5096605;28;20084;-81
2022/08/31 07:57:24;;;;;;;3.95;1.70;;;;;;;19.20;52.97;102081.50;5075889;28;20095;-80
2022/08/31 08:00:07;;;;;;;4.38;1.70;;;;;;;19.32;52.90;102084.91;5082033;28;20066;-82
2022/08/31 08:02:36;;;;;;;5.57;1.95;;;;;;;19.52;52.18;102091.09;5098017;28;20047;-80
2022/08/31 08:05:06;;;;;;;5.32;1.80;;;;;;;19.71;51.29;102093.72;5089818;28;20028;-79
2022/08/31 08:07:34;;;;;;;6.00;1.70;;;;;;;19.84;51.46;102076.41;5076647;28;20051;-81
2022/08/31 08:10:01;;;;;;;2.40;1.70;;;;;;;19.99;50.90;102096.47;5086248;28;20013;-80
2022/08/31 08:12:27;;;;;;;3.88;2.17;;;;;;;20.19;50.83;102091.84;5092360;28;20028;-79
2022/08/31 08:14:57;;;;;;;5.03;1.92;;;;;;;20.27;50.97;102089.22;5077184;28;20024;-80
2022/08/31 08:17:23;;;;;;;3.05;2.00;;;;;;;20.33;50.00;102095.88;5089825;28;20024;-80
2022/08/31 08:19:48;;;;;;;4.57;2.25;;;;;;;20.48;49.98;102104.28;5074331;28;20020;-79
2022/08/31 08:22:13;;;;;;;4.80;1.90;;;;;;;20.55;49.65;102099.13;5084899;28;20024;-79
2022/08/31 08:24:38;;;;;;;5.88;2.33;;;;;;;20.67;48.68;102106.91;5093197;28;20044;-79
2022/08/31 08:27:04;;;;;;;2.93;2.10;;;;;;;20.74;49.30;102114.41;5090036;28;20044;-79
2022/08/31 08:29:29;;;;;;;6.53;2.15;;;;;;;20.75;49.56;102114.25;5104062;28;20738;-79
2022/08/31 08:31:55;;;;;;;3.92;2.10;;;;;;;20.73;49.59;102120.78;5083174;28;20021;-79
2022/08/31 08:34:22;;;;;;;4.40;2.07;;;;;;;20.73;49.01;102113.53;5089292;28;20035;-79
2022/08/31 08:36:47;;;;;;;3.30;2.00;;;;;;;20.82;49.25;102112.63;5090288;28;20290;-79
2022/08/31 08:39:14;;;;;;;5.10;2.25;;;;;;;20.77;49.21;102117.63;5084933;28;20028;-79
2022/08/31 08:41:42;;;;;;;3.50;1.90;;;;;;;20.73;49.53;102115.38;5081185;28;20005;-79
2022/08/31 08:44:11;;;;;;;5.40;2.30;;;;;;;20.77;49.65;102123.03;5087656;28;20409;-81
2022/08/31 08:46:50;;;;;;;6.60;2.00;;;;;;;20.73;50.07;102124.31;5083006;28;20028;-79
2022/08/31 08:49:21;;;;;;;4.22;1.92;;;;;;;20.70;50.04;102119.25;5088479;28;20024;-79
2022/08/31 08:51:51;;;;;;;3.67;2.17;;;;;;;20.63;49.81;102121.72;5084969;28;20041;-79
2022/08/31 08:54:27;;;;;;;5.45;2.28;;;;;;;20.63;50.14;102113.63;5085333;28;20025;-79
2022/08/31 08:56:52;;;;;;;6.00;2.45;;;;;;;20.74;49.70;102115.22;5087287;28;20066;-78
2022/08/31 08:59:18;;;;;;;5.75;2.63;;;;;;;20.84;50.00;102112.47;5069729;28;20044;-79
2022/08/31 09:01:45;;;;;;;5.18;2.40;;;;;;;21.07;50.05;102110.13;5074399;28;20095;-78
2022/08/31 09:04:29;;;;;;;3.45;2.20;;;;;;;21.33;49.34;102103.91;5077334;28;20059;-78
2022/08/31 09:07:20;;;;;;;5.15;2.60;;;;;;;21.57;48.65;102101.41;5080229;28;20096;-78
2022/08/31 09:09:59;;;;;;;3.88;2.13;;;;;;;21.76;49.26;102094.06;5085846;28;20105;-78
2022/08/31 09:12:47;;;;;;;4.63;2.40;;;;;;;22.05;47.63;102106.38;5090217;28;20021;-77
2022/08/31 09:15:38;;;;;;;4.63;2.50;;;;;;;22.30;47.49;102100.09;5089440;28;20076;-79
2022/08/31 09:18:36;;;;;;;4.68;2.50;;;;;;;22.45;47.34;102092.19;5086672;28;20100;-79
2022/08/31 09:21:06;;;;;;;5.65;2.30;;;;;;;22.62;45.75;102095.75;5082384;28;20541;-78
2022/08/31 09:23:36;;;;;;;3.85;2.55;;;;;;;22.71;45.25;102104.75;5093305;28;20112;-79
2022/08/31 09:26:03;;;;;;;3.75;2.30;;;;;;;22.95;44.99;102097.66;5091544;28;20043;-78
2022/08/31 09:28:43;;;;;;;7.38;2.47;;;;;;;22.98;45.39;102089.19;5092515;28;20012;-80
2022/08/31 09:31:31;;;;;;;8.50;2.90;;;;;;;23.05;46.00;102085.63;5088812;28;20033;-78
2022/08/31 09:33:56;;;;;;;6.68;3.22;;;;;;;23.06;44.99;102090.06;5085670;28;20540;-77
2022/08/31 09:36:22;;;;;;;5.38;2.83;;;;;;;23.27;45.51;102089.53;5089421;28;20040;-78
2022/08/31 09:38:48;;;;;;;7.25;2.90;;;;;;;23.52;44.40;102096.81;5076068;28;20013;-78
2022/08/31 09:41:32;;;;;;;4.60;3.13;;;;;;;23.73;45.00;102096.22;5078867;28;20040;-78
2022/08/31 09:44:27;;;;;;;6.03;3.10;;;;;;;23.90;45.01;102097.03;5079493;28;20490;-81
2022/08/31 09:46:59;;;;;;;6.13;3.00;;;;;;;24.11;44.10;102100.00;5080625;28;20539;-79
2022/08/31 09:49:27;;;;;;;5.90;3.10;;;;;;;24.22;43.52;102095.22;5083557;28;20032;-79
2022/08/31 09:55:17;;;;;;;8.93;3.05;;;;;;;24.46;42.95;102100.50;5090461;28;20075;-79
2022/08/31 09:58:10;;;;;;;12.52;3.00;;;;;;;24.35;43.06;102098.22;5076757;28;20025;-78
2022/08/31 10:00:43;;;;;;;3.88;3.03;;;;;;;24.26;43.56;102077.53;5085776;28;20025;-79
2022/08/31 10:03:27;;;;;;;6.40;3.38;;;;;;;24.27;43.41;102084.69;5098678;28;20015;-82
2022/08/31 10:05:53;;;;;;;7.53;3.72;;;;;;;24.25;43.51;102082.13;5087223;28;20120;-79
2022/08/31 10:08:19;;;;;;;7.05;3.38;;;;;;;24.26;42.96;102091.13;5078129;28;20025;-80
2022/08/31 10:10:47;;;;;;;4.22;3.83;;;;;;;24.36;42.20;102089.00;5085974;28;20085;-82
2022/08/31 10:13:36;;;;;;;7.60;3.80;;;;;;;24.44;43.67;102083.53;5091450;28;20032;-80
2022/08/31 10:16:13;;;;;;;6.38;3.70;;;;;;;24.34;42.80;102086.47;5080229;28;20047;-81
2022/08/31 10:18:54;;;;;;;5.70;3.38;;;;;;;24.44;42.59;102094.41;5096106;28;20096;-80
2022/08/31 10:21:50;;;;;;;7.38;3.28;;;;;;;24.64;42.63;102080.41;5084739;28;20446;-82
2022/08/31 10:24:32;;;;;;;5.35;2.97;;;;;;;24.82;42.07;102078.22;5085867;28;20029;-82
2022/08/31 10:27:07;;;;;;;14.85;3.90;;;;;;;25.00;41.78;102086.06;5082412;28;20447;-81
2022/08/31 10:29:41;;;;;;;8.20;3.60;;;;;;;25.03;41.85;102084.81;5081620;28;20013;-81
2022/08/31 10:32:22;;;;;;;4.18;3.13;;;;;;;25.04;42.23;102079.22;5091895;28;20049;-82
2022/08/31 10:35:07;;;;;;;4.80;3.05;;;;;;;25.07;42.02;102075.28;5078667;28;20037;-82
2022/08/31 10:37:53;;;;;;;11.10;3.97;;;;;;;25.03;41.28;102080.25;5092538;28;20048;-80
2022/08/31 10:40:30;;;;;;;6.05;3.58;;;;;;;24.90;41.35;102077.31;5073835;28;20021;-80
2022/08/31 10:43:08;;;;;;;5.47;3.55;;;;;;;25.24;41.77;102067.81;5084176;28;20037;-82
2022/08/31 10:45:38;;;;;;;7.82;3.60;;;;;;;25.29;41.34;102073.56;5078940;28;20076;-82
2022/08/31 10:48:04;;;;;;;8.80;3.65;;;;;;;25.55;41.04;102072.31;5076768;28;20045;-81
2022/08/31 10:50:43;;;;;;;5.35;3.53;;;;;;;25.50;40.85;102064.69;5069107;28;20037;-82
2022/08/31 10:53:58;;;;;;;7.43;3.72;;;;;;;25.49;42.09;102063.81;5085115;28;20044;-81
2022/08/31 10:56:40;;;;;;;9.95;3.80;;;;;;;25.51;41.80;102066.38;5081142;28;20051;-80
2022/08/31 10:59:18;;;;;;;8.93;3.92;;;;;;;25.61;41.18;102071.53;5089086;28;20045;-82
2022/08/31 11:01:54;;;;;;;9.55;4.10;;;;;;;25.50;41.45;102064.69;5094339;28;20088;-82
2022/08/31 11:04:33;;;;;;;6.35;3.90;;;;;;;25.55;41.50;102056.81;5082322;28;20048;-80
2022/08/31 11:07:33;;;;;;;5.97;3.90;;;;;;;25.75;41.09;102067.97;5087868;28;20051;-82
2022/08/31 11:10:18;;;;;;;5.75;3.63;;;;;;;25.90;41.06;102062.50;5085307;28;20123;-82
2022/08/31 11:12:50;;;;;;;5.68;3.95;;;;;;;26.21;40.06;102061.44;5074871;28;20041;-81
2022/08/31 11:15:34;;;;;;;7.20;4.25;;;;;;;26.26;40.12;102055.41;5074639;28;20025;-81
2022/08/31 11:18:44;;;;;;;7.00;3.80;;;;;;;26.53;40.82;102056.53;5074272;28;20249;-82
2022/08/31 11:21:41;;;;;;;7.55;3.80;;;;;;;26.67;39.30;102065.72;5079711;28;20058;-83
2022/08/31 11:24:26;;;;;;;5.28;4.00;;;;;;;26.57;39.16;102055.13;5085868;28;20085;-80
2022/08/31 11:27:22;;;;;;;3.70;3.40;;;;;;;26.72;39.46;102061.38;5094434;28;20041;-81
2022/08/31 11:29:58;;;;;;;8.40;3.40;;;;;;;26.72;38.38;102060.53;5096467;28;20028;-83
2022/08/31 11:32:36;;;;;;;9.27;3.20;;;;;;;26.82;38.38;102052.03;5096453;28;20317;-82
2022/08/31 11:35:09;;;;;;;8.20;3.85;;;;;;;26.81;38.59;102062.06;5078372;28;20031;-80
2022/08/31 11:37:57;;;;;;;8.73;3.10;;;;;;;27.02;38.77;102044.00;5080903;28;20025;-80
2022/08/31 11:40:41;;;;;;;5.40;3.47;;;;;;;27.02;38.37;102044.84;5079361;28;20039;-80
2022/08/31 11:43:12;;;;;;;5.55;3.55;;;;;;;26.93;38.07;102044.16;5091667;28;20033;-80
2022/08/31 11:45:38;;;;;;;8.35;3.13;;;;;;;27.10;38.21;102044.72;5075604;28;20021;-80
2022/08/31 11:48:05;;;;;;;5.25;2.80;;;;;;;27.20;38.36;102047.09;5089429;28;20025;-80
2022/08/31 11:51:02;;;;;;;7.47;3.28;;;;;;;27.24;38.58;102034.72;5094195;28;20059;-81